sensor_id;sensor_type;location;lat;lon;timestamp;pressure;altitude;pressure_sealevel;temperature;humidity
69257;BME280;56376;53.356;-1.748;2023-01-27T00:01:57;101166.53;;;3.93;100.00
69257;BME280;56376;53.356;-1.748;2023-01-27T00:04:22;101156.19;;;3.93;100.00
69257;BME280;56376;53.356;-1.748;2023-01-27T00:06:48;101159.50;;;3.85;100.00
69257;BME280;56376;53.356;-1.748;2023-01-27T00:09:14;101161.28;;;3.88;100.00
69257;BME280;56376;53.356;-1.748;2023-01-27T00:11:40;101151.84;;;3.88;100.00
69257;BME280;56376;53.356;-1.748;2023-01-27T00:14:24;101168.03;;;3.80;100.00
69257;BME280;56376;53.356;-1.748;2023-01-27T00:16:49;101164.63;;;3.82;100.00
69257;BME280;56376;53.356;-1.748;2023-01-27T00:19:14;101162.09;;;3.85;100.00
69257;BME280;56376;53.356;-1.748;2023-01-27T00:21:44;101165.59;;;3.87;100.00
69257;BME280;56376;53.356;-1.748;2023-01-27T00:24:28;101160.47;;;3.89;100.00
69257;BME280;56376;53.356;-1.748;2023-01-27T00:27:03;101162.22;;;3.92;100.00
69257;BME280;56376;53.356;-1.748;2023-01-27T00:29:29;101153.59;;;3.93;100.00
69257;BME280;56376;53.356;-1.748;2023-01-27T00:31:55;101157.06;;;3.92;100.00
69257;BME280;56376;53.356;-1.748;2023-01-27T00:34:39;101157.00;;;3.90;100.00
69257;BME280;56376;53.356;-1.748;2023-01-27T00:37:06;101150.06;;;3.87;100.00
69257;BME280;56376;53.356;-1.748;2023-01-27T00:39:31;101157.84;;;3.87;100.00
69257;BME280;56376;53.356;-1.748;2023-01-27T00:42:02;101150.06;;;3.87;100.00
69257;BME280;56376;53.356;-1.748;2023-01-27T00:44:27;101142.34;;;3.89;100.00
69257;BME280;56376;53.356;-1.748;2023-01-27T00:46:53;101141.47;;;3.87;100.00
69257;BME280;56376;53.356;-1.748;2023-01-27T00:49:18;101146.66;;;3.90;100.00
69257;BME280;56376;53.356;-1.748;2023-01-27T00:51:44;101144.91;;;3.87;100.00
69257;BME280;56376;53.356;-1.748;2023-01-27T00:54:09;101152.66;;;3.86;100.00
69257;BME280;56376;53.356;-1.748;2023-01-27T00:56:35;101148.31;;;3.85;100.00
69257;BME280;56376;53.356;-1.748;2023-01-27T00:59:00;101146.59;;;3.84;100.00
69257;BME280;56376;53.356;-1.748;2023-01-27T01:01:26;101139.66;;;3.83;100.00
69257;BME280;56376;53.356;-1.748;2023-01-27T01:03:52;101133.63;;;3.81;100.00
69257;BME280;56376;53.356;-1.748;2023-01-27T01:06:18;101129.31;;;3.83;100.00
69257;BME280;56376;53.356;-1.748;2023-01-27T01:08:44;101125.84;;;3.81;100.00
69257;BME280;56376;53.356;-1.748;2023-01-27T01:11:12;101137.97;;;3.85;100.00
69257;BME280;56376;53.356;-1.748;2023-01-27T01:13:39;101130.22;;;3.83;100.00
69257;BME280;56376;53.356;-1.748;2023-01-27T01:16:06;101122.50;;;3.86;100.00
69257;BME280;56376;53.356;-1.748;2023-01-27T01:18:32;101127.63;;;3.85;100.00
69257;BME280;56376;53.356;-1.748;2023-01-27T01:20:57;101137.16;;;3.87;100.00
69257;BME280;56376;53.356;-1.748;2023-01-27T01:23:22;101124.22;;;3.87;100.00
69257;BME280;56376;53.356;-1.748;2023-01-27T01:25:53;101122.50;;;3.88;100.00
69257;BME280;56376;53.356;-1.748;2023-01-27T01:28:19;101122.56;;;3.91;100.00
69257;BME280;56376;53.356;-1.748;2023-01-27T01:30:44;101116.50;;;3.90;100.00
69257;BME280;56376;53.356;-1.748;2023-01-27T01:33:10;101119.09;;;3.90;100.00
69257;BME280;56376;53.356;-1.748;2023-01-27T01:35:37;101113.91;;;3.89;100.00
69257;BME280;56376;53.356;-1.748;2023-01-27T01:38:03;101121.69;;;3.90;100.00
69257;BME280;56376;53.356;-1.748;2023-01-27T01:40:28;101122.53;;;3.89;100.00
69257;BME280;56376;53.356;-1.748;2023-01-27T01:42:56;101119.91;;;3.88;100.00
69257;BME280;56376;53.356;-1.748;2023-01-27T01:48:03;101117.38;;;3.89;100.00
69257;BME280;56376;53.356;-1.748;2023-01-27T01:50:30;101107.91;;;3.90;100.00
69257;BME280;56376;53.356;-1.748;2023-01-27T01:52:56;101114.78;;;3.89;100.00
69257;BME280;56376;53.356;-1.748;2023-01-27T01:55:23;101114.78;;;3.89;100.00
69257;BME280;56376;53.356;-1.748;2023-01-27T01:57:49;101119.09;;;3.89;100.00
69257;BME280;56376;53.356;-1.748;2023-01-27T02:00:15;101113.06;;;3.90;100.00
69257;BME280;56376;53.356;-1.748;2023-01-27T02:02:41;101115.59;;;3.87;100.00
69257;BME280;56376;53.356;-1.748;2023-01-27T02:05:10;101114.69;;;3.83;100.00
69257;BME280;56376;53.356;-1.748;2023-01-27T02:07:53;101125.91;;;3.84;100.00
69257;BME280;56376;53.356;-1.748;2023-01-27T02:10:21;101120.69;;;3.82;100.00
69257;BME280;56376;53.356;-1.748;2023-01-27T02:12:46;101119.88;;;3.85;100.00
69257;BME280;56376;53.356;-1.748;2023-01-27T02:15:12;101119.06;;;3.86;100.00
69257;BME280;56376;53.356;-1.748;2023-01-27T02:17:38;101114.75;;;3.86;100.00
69257;BME280;56376;53.356;-1.748;2023-01-27T02:28:05;101118.22;;;3.88;100.00
69257;BME280;56376;53.356;-1.748;2023-01-27T02:30:31;101120.00;;;3.91;100.00
69257;BME280;56376;53.356;-1.748;2023-01-27T02:32:57;101108.75;;;3.90;100.00
69257;BME280;56376;53.356;-1.748;2023-01-27T02:35:29;101125.16;;;3.93;100.00
69257;BME280;56376;53.356;-1.748;2023-01-27T02:37:58;101104.53;;;3.94;100.00
69257;BME280;56376;53.356;-1.748;2023-01-27T02:40:24;101109.66;;;3.91;100.00
69257;BME280;56376;53.356;-1.748;2023-01-27T02:42:53;101109.56;;;3.88;100.00
69257;BME280;56376;53.356;-1.748;2023-01-27T02:45:20;101113.91;;;3.89;100.00
69257;BME280;56376;53.356;-1.748;2023-01-27T02:47:45;101105.31;;;3.90;100.00
69257;BME280;56376;53.356;-1.748;2023-01-27T02:50:10;101107.06;;;3.93;100.00
69257;BME280;56376;53.356;-1.748;2023-01-27T02:52:36;101107.03;;;3.89;100.00
69257;BME280;56376;53.356;-1.748;2023-01-27T02:55:01;101100.97;;;3.87;100.00
69257;BME280;56376;53.356;-1.748;2023-01-27T02:57:26;101095.78;;;3.86;100.00
69257;BME280;56376;53.356;-1.748;2023-01-27T02:59:52;101097.50;;;3.87;100.00
69257;BME280;56376;53.356;-1.748;2023-01-27T03:02:17;101084.50;;;3.82;100.00
69257;BME280;56376;53.356;-1.748;2023-01-27T03:04:47;101089.78;;;3.88;100.00
69257;BME280;56376;53.356;-1.748;2023-01-27T03:07:13;101096.69;;;3.89;100.00
69257;BME280;56376;53.356;-1.748;2023-01-27T03:09:38;101097.56;;;3.90;100.00
69257;BME280;56376;53.356;-1.748;2023-01-27T03:12:03;101090.63;;;3.87;100.00
69257;BME280;56376;53.356;-1.748;2023-01-27T03:14:44;101097.56;;;3.90;100.00
69257;BME280;56376;53.356;-1.748;2023-01-27T03:17:28;101092.41;;;3.92;100.00
69257;BME280;56376;53.356;-1.748;2023-01-27T03:20:13;101093.25;;;3.89;100.00
69257;BME280;56376;53.356;-1.748;2023-01-27T03:22:38;101093.19;;;3.87;100.00
69257;BME280;56376;53.356;-1.748;2023-01-27T03:25:04;101097.50;;;3.87;100.00
69257;BME280;56376;53.356;-1.748;2023-01-27T03:27:29;101096.66;;;3.88;100.00
69257;BME280;56376;53.356;-1.748;2023-01-27T03:29:55;101094.88;;;3.85;100.00
69257;BME280;56376;53.356;-1.748;2023-01-27T03:32:28;101088.88;;;3.86;100.00
69257;BME280;56376;53.356;-1.748;2023-01-27T03:34:54;101092.28;;;3.84;100.00
69257;BME280;56376;53.356;-1.748;2023-01-27T03:37:23;101098.38;;;3.87;100.00
69257;BME280;56376;53.356;-1.748;2023-01-27T03:40:08;101091.53;;;3.89;100.00
69257;BME280;56376;53.356;-1.748;2023-01-27T03:42:52;101088.97;;;3.91;100.00
69257;BME280;56376;53.356;-1.748;2023-01-27T03:45:36;101096.72;;;3.93;100.00
69257;BME280;56376;53.356;-1.748;2023-01-27T03:48:20;101093.31;;;3.94;100.00
69257;BME280;56376;53.356;-1.748;2023-01-27T03:50:46;101096.72;;;3.93;100.00
69257;BME280;56376;53.356;-1.748;2023-01-27T03:53:17;101095.00;;;3.92;100.00
69257;BME280;56376;53.356;-1.748;2023-01-27T03:55:43;101091.56;;;3.93;100.00
69257;BME280;56376;53.356;-1.748;2023-01-27T03:58:29;101094.97;;;3.90;100.00
69257;BME280;56376;53.356;-1.748;2023-01-27T04:01:00;101102.72;;;3.88;100.00
69257;BME280;56376;53.356;-1.748;2023-01-27T04:03:29;101099.31;;;3.93;100.00
69257;BME280;56376;53.356;-1.748;2023-01-27T04:06:18;101107.06;;;3.91;100.00
69257;BME280;56376;53.356;-1.748;2023-01-27T04:09:04;101100.13;;;3.88;100.00
69257;BME280;56376;53.356;-1.748;2023-01-27T04:11:30;101096.66;;;3.88;100.00
69257;BME280;56376;53.356;-1.748;2023-01-27T04:14:15;101089.78;;;3.88;100.00
69257;BME280;56376;53.356;-1.748;2023-01-27T04:16:40;101094.97;;;3.88;100.00
69257;BME280;56376;53.356;-1.748;2023-01-27T04:19:08;101094.13;;;3.91;100.00
69257;BME280;56376;53.356;-1.748;2023-01-27T04:21:34;101093.25;;;3.90;100.00
69257;BME280;56376;53.356;-1.748;2023-01-27T04:23:59;101094.97;;;3.88;100.00
69257;BME280;56376;53.356;-1.748;2023-01-27T04:26:26;101091.53;;;3.89;100.00
69257;BME280;56376;53.356;-1.748;2023-01-27T04:28:58;101097.53;;;3.88;100.00
69257;BME280;56376;53.356;-1.748;2023-01-27T04:31:24;101090.66;;;3.89;100.00
69257;BME280;56376;53.356;-1.748;2023-01-27T04:33:49;101082.03;;;3.90;100.00
69257;BME280;56376;53.356;-1.748;2023-01-27T04:36:14;101082.06;;;3.92;100.00
69257;BME280;56376;53.356;-1.748;2023-01-27T04:38:40;101078.63;;;3.93;100.00
69257;BME280;56376;53.356;-1.748;2023-01-27T04:41:06;101076.94;;;3.93;100.00
69257;BME280;56376;53.356;-1.748;2023-01-27T04:43:31;101074.34;;;3.93;100.00
69257;BME280;56376;53.356;-1.748;2023-01-27T04:45:57;101076.94;;;3.95;100.00
69257;BME280;56376;53.356;-1.748;2023-01-27T04:48:22;101080.41;;;3.95;100.00
69257;BME280;56376;53.356;-1.748;2023-01-27T04:50:48;101084.69;;;3.95;100.00
69257;BME280;56376;53.356;-1.748;2023-01-27T04:53:13;101076.94;;;3.95;100.00
69257;BME280;56376;53.356;-1.748;2023-01-27T04:55:40;101085.56;;;3.94;100.00
69257;BME280;56376;53.356;-1.748;2023-01-27T04:58:06;101091.59;;;3.94;100.00
69257;BME280;56376;53.356;-1.748;2023-01-27T05:00:31;101088.16;;;3.94;100.00
69257;BME280;56376;53.356;-1.748;2023-01-27T05:02:56;101082.97;;;3.95;100.00
69257;BME280;56376;53.356;-1.748;2023-01-27T05:05:22;101079.53;;;3.95;100.00
69257;BME280;56376;53.356;-1.748;2023-01-27T05:07:47;101080.41;;;3.95;100.00
69257;BME280;56376;53.356;-1.748;2023-01-27T05:10:13;101073.53;;;3.96;100.00
69257;BME280;56376;53.356;-1.748;2023-01-27T05:12:38;101074.41;;;3.98;100.00
69257;BME280;56376;53.356;-1.748;2023-01-27T05:15:04;101076.16;;;3.99;100.00
69257;BME280;56376;53.356;-1.748;2023-01-27T05:17:31;101084.75;;;3.96;100.00
69257;BME280;56376;53.356;-1.748;2023-01-27T05:19:56;101069.22;;;3.96;100.00
69257;BME280;56376;53.356;-1.748;2023-01-27T05:22:22;101074.47;;;4.01;100.00
69257;BME280;56376;53.356;-1.748;2023-01-27T05:24:47;101077.03;;;3.99;100.00
69257;BME280;56376;53.356;-1.748;2023-01-27T05:27:13;101075.25;;;3.97;100.00
69257;BME280;56376;53.356;-1.748;2023-01-27T05:29:39;101079.56;;;3.96;100.00
69257;BME280;56376;53.356;-1.748;2023-01-27T05:32:04;101081.28;;;3.96;100.00
69257;BME280;56376;53.356;-1.748;2023-01-27T05:34:30;101081.28;;;3.96;100.00
69257;BME280;56376;53.356;-1.748;2023-01-27T05:36:55;101079.59;;;3.99;100.00
69257;BME280;56376;53.356;-1.748;2023-01-27T05:39:20;101081.34;;;4.00;100.00
69257;BME280;56376;53.356;-1.748;2023-01-27T05:41:46;101069.31;;;4.01;100.00
69257;BME280;56376;53.356;-1.748;2023-01-27T05:44:11;101068.38;;;3.97;100.00
69257;BME280;56376;53.356;-1.748;2023-01-27T05:46:38;101076.94;;;3.95;100.00
69257;BME280;56376;53.356;-1.748;2023-01-27T05:49:04;101069.19;;;3.95;100.00
69257;BME280;56376;53.356;-1.748;2023-01-27T05:51:34;101072.63;;;3.94;100.00
69257;BME280;56376;53.356;-1.748;2023-01-27T05:54:01;101070.00;;;3.92;100.00
69257;BME280;56376;53.356;-1.748;2023-01-27T05:56:26;101075.16;;;3.90;100.00
69257;BME280;56376;53.356;-1.748;2023-01-27T05:58:53;101071.66;;;3.87;100.00
69257;BME280;56376;53.356;-1.748;2023-01-27T06:01:22;101069.94;;;3.87;100.00
69257;BME280;56376;53.356;-1.748;2023-01-27T06:03:48;101069.00;;;3.82;100.00
69257;BME280;56376;53.356;-1.748;2023-01-27T06:06:18;101076.75;;;3.81;100.00
69257;BME280;56376;53.356;-1.748;2023-01-27T06:08:44;101077.56;;;3.78;100.00
69257;BME280;56376;53.356;-1.748;2023-01-27T06:11:10;101072.31;;;3.75;100.00
69257;BME280;56376;53.356;-1.748;2023-01-27T06:13:35;101074.03;;;3.73;100.00
69257;BME280;56376;53.356;-1.748;2023-01-27T06:16:04;101074.03;;;3.73;100.00
69257;BME280;56376;53.356;-1.748;2023-01-27T06:18:30;101082.66;;;3.74;100.00
69257;BME280;56376;53.356;-1.748;2023-01-27T06:20:57;101080.06;;;3.74;100.00
69257;BME280;56376;53.356;-1.748;2023-01-27T06:23:23;101081.78;;;3.73;100.00
69257;BME280;56376;53.356;-1.748;2023-01-27T06:25:49;101080.91;;;3.73;100.00
69257;BME280;56376;53.356;-1.748;2023-01-27T06:28:16;101076.53;;;3.68;100.00
69257;BME280;56376;53.356;-1.748;2023-01-27T06:30:41;101076.53;;;3.70;100.00
69257;BME280;56376;53.356;-1.748;2023-01-27T06:33:08;101085.19;;;3.71;100.00
69257;BME280;56376;53.356;-1.748;2023-01-27T06:35:36;101083.47;;;3.71;100.00
69257;BME280;56376;53.356;-1.748;2023-01-27T06:38:02;101082.63;;;3.71;100.00
69257;BME280;56376;53.356;-1.748;2023-01-27T06:40:30;101083.47;;;3.71;100.00
69257;BME280;56376;53.356;-1.748;2023-01-27T06:42:56;101078.25;;;3.68;100.00
69257;BME280;56376;53.356;-1.748;2023-01-27T06:45:22;101080.00;;;3.69;100.00
69257;BME280;56376;53.356;-1.748;2023-01-27T06:50:21;101092.09;;;3.72;100.00
69257;BME280;56376;53.356;-1.748;2023-01-27T06:52:47;101084.34;;;3.72;100.00
69257;BME280;56376;53.356;-1.748;2023-01-27T06:55:12;101092.13;;;3.75;100.00
69257;BME280;56376;53.356;-1.748;2023-01-27T06:57:38;101106.78;;;3.74;100.00
69257;BME280;56376;53.356;-1.748;2023-01-27T07:00:03;101098.16;;;3.75;100.00
69257;BME280;56376;53.356;-1.748;2023-01-27T07:02:29;101095.56;;;3.74;100.00
69257;BME280;56376;53.356;-1.748;2023-01-27T07:04:54;101091.31;;;3.76;100.00
69257;BME280;56376;53.356;-1.748;2023-01-27T07:07:20;101085.28;;;3.77;100.00
69257;BME280;56376;53.356;-1.748;2023-01-27T07:09:46;101091.31;;;3.76;100.00
69257;BME280;56376;53.356;-1.748;2023-01-27T07:12:11;101103.34;;;3.75;100.00
69257;BME280;56376;53.356;-1.748;2023-01-27T07:14:36;101095.63;;;3.77;100.00
69257;BME280;56376;53.356;-1.748;2023-01-27T07:17:02;101100.84;;;3.78;100.00
69257;BME280;56376;53.356;-1.748;2023-01-27T07:19:27;101099.06;;;3.76;100.00
69257;BME280;56376;53.356;-1.748;2023-01-27T07:21:53;101099.88;;;3.75;100.00
69257;BME280;56376;53.356;-1.748;2023-01-27T07:24:18;101105.88;;;3.72;100.00
69257;BME280;56376;53.356;-1.748;2023-01-27T07:26:43;101100.66;;;3.69;100.00
69257;BME280;56376;53.356;-1.748;2023-01-27T07:29:12;101107.56;;;3.70;100.00
69257;BME280;56376;53.356;-1.748;2023-01-27T07:31:37;101098.94;;;3.69;100.00
69257;BME280;56376;53.356;-1.748;2023-01-27T07:34:03;101101.53;;;3.69;100.00
69257;BME280;56376;53.356;-1.748;2023-01-27T07:36:28;101115.25;;;3.65;100.00
69257;BME280;56376;53.356;-1.748;2023-01-27T07:38:54;101105.75;;;3.63;100.00
69257;BME280;56376;53.356;-1.748;2023-01-27T07:41:19;101114.31;;;3.62;100.00
69257;BME280;56376;53.356;-1.748;2023-01-27T07:43:47;101113.50;;;3.63;100.00
69257;BME280;56376;53.356;-1.748;2023-01-27T07:46:12;101108.34;;;3.64;100.00
69257;BME280;56376;53.356;-1.748;2023-01-27T07:48:38;101113.50;;;3.64;100.00
69257;BME280;56376;53.356;-1.748;2023-01-27T07:51:03;101116.09;;;3.64;100.00
69257;BME280;56376;53.356;-1.748;2023-01-27T07:53:29;101124.75;;;3.66;100.00
69257;BME280;56376;53.356;-1.748;2023-01-27T07:55:54;101128.16;;;3.64;100.00
69257;BME280;56376;53.356;-1.748;2023-01-27T07:58:19;101132.50;;;3.66;100.00
69257;BME280;56376;53.356;-1.748;2023-01-27T08:00:45;101126.47;;;3.67;100.00
69257;BME280;56376;53.356;-1.748;2023-01-27T08:03:28;101137.66;;;3.66;100.00
69257;BME280;56376;53.356;-1.748;2023-01-27T08:05:53;101139.34;;;3.64;100.00
69257;BME280;56376;53.356;-1.748;2023-01-27T08:08:19;101138.47;;;3.64;100.00
69257;BME280;56376;53.356;-1.748;2023-01-27T08:10:44;101138.53;;;3.65;100.00
69257;BME280;56376;53.356;-1.748;2023-01-27T08:13:13;101142.84;;;3.66;100.00
69257;BME280;56376;53.356;-1.748;2023-01-27T08:15:39;101148.00;;;3.66;100.00
69257;BME280;56376;53.356;-1.748;2023-01-27T08:18:04;101145.38;;;3.63;100.00
69257;BME280;56376;53.356;-1.748;2023-01-27T08:20:30;101148.81;;;3.64;100.00
69257;BME280;56376;53.356;-1.748;2023-01-27T08:22:56;101153.13;;;3.65;100.00
69257;BME280;56376;53.356;-1.748;2023-01-27T08:25:22;101154.03;;;3.67;100.00
69257;BME280;56376;53.356;-1.748;2023-01-27T08:27:51;101160.97;;;3.69;100.00
69257;BME280;56376;53.356;-1.748;2023-01-27T08:30:18;101153.25;;;3.71;100.00
69257;BME280;56376;53.356;-1.748;2023-01-27T08:32:43;101165.31;;;3.72;100.00
69257;BME280;56376;53.356;-1.748;2023-01-27T08:35:08;101165.31;;;3.72;100.00
69257;BME280;56376;53.356;-1.748;2023-01-27T08:37:34;101168.81;;;3.74;100.00
69257;BME280;56376;53.356;-1.748;2023-01-27T08:39:59;101173.13;;;3.75;100.00
69257;BME280;56376;53.356;-1.748;2023-01-27T08:42:25;101169.69;;;3.75;100.00
69257;BME280;56376;53.356;-1.748;2023-01-27T08:44:50;101175.69;;;3.74;100.00
69257;BME280;56376;53.356;-1.748;2023-01-27T08:47:15;101175.69;;;3.74;100.00
69257;BME280;56376;53.356;-1.748;2023-01-27T08:49:41;101178.25;;;3.72;100.00
69257;BME280;56376;53.356;-1.748;2023-01-27T08:52:06;101180.00;;;3.73;100.00
69257;BME280;56376;53.356;-1.748;2023-01-27T08:54:32;101181.72;;;3.74;100.00
69257;BME280;56376;53.356;-1.748;2023-01-27T08:56:57;101194.69;;;3.77;100.00
69257;BME280;56376;53.356;-1.748;2023-01-27T08:59:22;101179.16;;;3.74;100.00
69257;BME280;56376;53.356;-1.748;2023-01-27T09:01:48;101193.88;;;3.78;100.00
69257;BME280;56376;53.356;-1.748;2023-01-27T09:04:13;101193.03;;;3.79;100.00
69257;BME280;56376;53.356;-1.748;2023-01-27T09:06:39;101206.81;;;3.78;100.00
69257;BME280;56376;53.356;-1.748;2023-01-27T09:09:04;101193.03;;;3.79;100.00
69257;BME280;56376;53.356;-1.748;2023-01-27T09:11:34;101198.25;;;3.82;100.00
69257;BME280;56376;53.356;-1.748;2023-01-27T09:14:00;101208.63;;;3.84;100.00
69257;BME280;56376;53.356;-1.748;2023-01-27T09:16:25;101214.63;;;3.83;100.00
69257;BME280;56376;53.356;-1.748;2023-01-27T09:18:51;101211.22;;;3.85;100.00
69257;BME280;56376;53.356;-1.748;2023-01-27T09:21:16;101211.25;;;3.87;100.00
69257;BME280;56376;53.356;-1.748;2023-01-27T09:23:41;101204.38;;;3.87;100.00
69257;BME280;56376;53.356;-1.748;2023-01-27T09:26:07;101200.94;;;3.88;100.00
69257;BME280;56376;53.356;-1.748;2023-01-27T09:28:32;101201.78;;;3.86;100.00
69257;BME280;56376;53.356;-1.748;2023-01-27T09:30:58;101207.06;;;3.94;100.00
69257;BME280;56376;53.356;-1.748;2023-01-27T09:33:24;101196.66;;;3.90;100.00
69257;BME280;56376;53.356;-1.748;2023-01-27T09:36:00;101190.66;;;3.92;100.00
69257;BME280;56376;53.356;-1.748;2023-01-27T09:38:30;101203.69;;;3.96;100.00
69257;BME280;56376;53.356;-1.748;2023-01-27T09:46:43;101194.25;;;4.00;100.00
69257;BME280;56376;53.356;-1.748;2023-01-27T09:49:28;101195.06;;;3.97;100.00
69257;BME280;56376;53.356;-1.748;2023-01-27T10:00:47;101199.50;;;4.04;100.00
69257;BME280;56376;53.356;-1.748;2023-01-27T10:03:46;101199.53;;;4.07;100.00
69257;BME280;56376;53.356;-1.748;2023-01-27T10:06:23;101202.16;;;4.09;100.00
69257;BME280;56376;53.356;-1.748;2023-01-27T10:14:16;101192.75;;;4.14;100.00
69257;BME280;56376;53.356;-1.748;2023-01-27T10:20:00;101182.47;;;4.17;100.00
69257;BME280;56376;53.356;-1.748;2023-01-27T10:25:44;101192.75;;;4.70;100.00
69257;BME280;56376;53.356;-1.748;2023-01-27T10:28:19;101185.38;;;4.98;100.00
69257;BME280;56376;53.356;-1.748;2023-01-27T10:35:59;101192.78;;;5.40;100.00
69257;BME280;56376;53.356;-1.748;2023-01-27T10:46:44;101201.09;;;5.13;100.00
69257;BME280;56376;53.356;-1.748;2023-01-27T10:49:18;101185.41;;;5.01;100.00
69257;BME280;56376;53.356;-1.748;2023-01-27T10:52:04;101183.69;;;5.02;100.00
69257;BME280;56376;53.356;-1.748;2023-01-27T10:54:46;101191.50;;;5.05;100.00
69257;BME280;56376;53.356;-1.748;2023-01-27T10:57:26;101200.09;;;5.04;100.00
69257;BME280;56376;53.356;-1.748;2023-01-27T11:00:17;101181.91;;;4.97;100.00
69257;BME280;56376;53.356;-1.748;2023-01-27T11:02:56;101191.44;;;5.00;100.00
69257;BME280;56376;53.356;-1.748;2023-01-27T11:05:33;101184.63;;;5.08;100.00
69257;BME280;56376;53.356;-1.748;2023-01-27T11:08:09;101179.75;;;5.33;100.00
69257;BME280;56376;53.356;-1.748;2023-01-27T11:10:40;101183.44;;;5.56;100.00
69257;BME280;56376;53.356;-1.748;2023-01-27T11:13:29;101167.97;;;5.64;100.00
69257;BME280;56376;53.356;-1.748;2023-01-27T11:15:56;101167.13;;;5.67;100.00
69257;BME280;56376;53.356;-1.748;2023-01-27T11:18:25;101184.47;;;5.71;100.00
69257;BME280;56376;53.356;-1.748;2023-01-27T11:21:08;101167.00;;;5.54;100.00
69257;BME280;56376;53.356;-1.748;2023-01-27T11:23:43;101169.50;;;5.43;100.00
69257;BME280;56376;53.356;-1.748;2023-01-27T11:31:58;101178.88;;;5.32;100.00
69257;BME280;56376;53.356;-1.748;2023-01-27T11:34:34;101176.25;;;5.31;100.00
69257;BME280;56376;53.356;-1.748;2023-01-27T11:37:22;101152.00;;;5.23;100.00
69257;BME280;56376;53.356;-1.748;2023-01-27T11:39:49;101158.84;;;5.19;100.00
69257;BME280;56376;53.356;-1.748;2023-01-27T11:42:16;101156.28;;;5.20;100.00
69257;BME280;56376;53.356;-1.748;2023-01-27T11:44:43;101161.50;;;5.24;100.00
69257;BME280;56376;53.356;-1.748;2023-01-27T11:47:20;101145.03;;;5.17;100.00
69257;BME280;56376;53.356;-1.748;2023-01-27T11:49:49;101140.69;;;5.14;100.00
69257;BME280;56376;53.356;-1.748;2023-01-27T11:52:18;101146.78;;;5.21;100.00
69257;BME280;56376;53.356;-1.748;2023-01-27T11:55:04;101147.66;;;5.21;100.00
69257;BME280;56376;53.356;-1.748;2023-01-27T11:57:31;101141.66;;;5.24;100.00
69257;BME280;56376;53.356;-1.748;2023-01-27T12:00:18;101126.97;;;5.26;100.00
69257;BME280;56376;53.356;-1.748;2023-01-27T12:02:48;101127.94;;;5.33;100.00
69257;BME280;56376;53.356;-1.748;2023-01-27T12:05:43;101128.81;;;5.36;100.00
69257;BME280;56376;53.356;-1.748;2023-01-27T12:08:11;101117.63;;;5.37;100.00
69257;BME280;56376;53.356;-1.748;2023-01-27T12:10:38;101115.00;;;5.36;100.00
69257;BME280;56376;53.356;-1.748;2023-01-27T12:13:17;101112.44;;;5.37;100.00
69257;BME280;56376;53.356;-1.748;2023-01-27T12:15:59;101115.84;;;5.35;100.00
69257;BME280;56376;53.356;-1.748;2023-01-27T12:18:30;101107.16;;;5.30;100.00
69257;BME280;56376;53.356;-1.748;2023-01-27T12:21:03;101123.56;;;5.29;100.00
69257;BME280;56376;53.356;-1.748;2023-01-27T12:23:33;101113.09;;;5.19;100.00
69257;BME280;56376;53.356;-1.748;2023-01-27T12:26:06;101113.97;;;5.20;100.00
69257;BME280;56376;53.356;-1.748;2023-01-27T12:28:42;101121.75;;;5.20;100.00
69257;BME280;56376;53.356;-1.748;2023-01-27T12:31:27;101109.63;;;5.17;100.00
69257;BME280;56376;53.356;-1.748;2023-01-27T12:34:10;101112.16;;;5.13;100.00
69257;BME280;56376;53.356;-1.748;2023-01-27T12:36:39;101103.50;;;5.09;100.00
69257;BME280;56376;53.356;-1.748;2023-01-27T12:39:04;101105.25;;;5.12;100.00
69257;BME280;56376;53.356;-1.748;2023-01-27T12:41:32;101106.94;;;5.11;100.00
69257;BME280;56376;53.356;-1.748;2023-01-27T12:44:16;101090.56;;;5.09;100.00
69257;BME280;56376;53.356;-1.748;2023-01-27T12:47:03;101100.91;;;5.11;100.00
69257;BME280;56376;53.356;-1.748;2023-01-27T12:49:38;101096.66;;;5.14;100.00
69257;BME280;56376;53.356;-1.748;2023-01-27T12:52:17;101094.09;;;5.17;100.00
69257;BME280;56376;53.356;-1.748;2023-01-27T12:54:42;101095.81;;;5.18;100.00
69257;BME280;56376;53.356;-1.748;2023-01-27T12:57:14;101085.47;;;5.21;100.00
69257;BME280;56376;53.356;-1.748;2023-01-27T12:59:47;101091.56;;;5.22;100.00
69257;BME280;56376;53.356;-1.748;2023-01-27T13:02:29;101089.84;;;5.24;100.00
69257;BME280;56376;53.356;-1.748;2023-01-27T13:05:00;101092.44;;;5.26;100.00
69257;BME280;56376;53.356;-1.748;2023-01-27T13:07:32;101087.25;;;5.26;100.00
69257;BME280;56376;53.356;-1.748;2023-01-27T13:10:05;101083.78;;;5.24;100.00
69257;BME280;56376;53.356;-1.748;2023-01-27T13:12:49;101086.38;;;5.22;100.00
69257;BME280;56376;53.356;-1.748;2023-01-27T13:15:22;101089.00;;;5.27;100.00
69257;BME280;56376;53.356;-1.748;2023-01-27T13:17:50;101088.16;;;5.28;100.00
69257;BME280;56376;53.356;-1.748;2023-01-27T13:20:26;101080.41;;;5.29;100.00
69257;BME280;56376;53.356;-1.748;2023-01-27T13:25:41;101078.66;;;5.30;100.00
69257;BME280;56376;53.356;-1.748;2023-01-27T13:28:14;101070.00;;;5.28;100.00
69257;BME280;56376;53.356;-1.748;2023-01-27T13:30:45;101063.94;;;5.24;100.00
69257;BME280;56376;53.356;-1.748;2023-01-27T13:36:34;101056.19;;;5.29;100.00
69257;BME280;56376;53.356;-1.748;2023-01-27T13:41:45;101053.59;;;5.27;100.00
69257;BME280;56376;53.356;-1.748;2023-01-27T13:44:25;101058.78;;;5.29;100.00
69257;BME280;56376;53.356;-1.748;2023-01-27T13:46:58;101051.91;;;5.29;100.00
69257;BME280;56376;53.356;-1.748;2023-01-27T13:49:38;101052.75;;;5.31;100.00
69257;BME280;56376;53.356;-1.748;2023-01-27T13:52:06;101047.56;;;5.31;100.00
69257;BME280;56376;53.356;-1.748;2023-01-27T13:54:31;101048.47;;;5.32;100.00
69257;BME280;56376;53.356;-1.748;2023-01-27T14:07:49;101049.41;;;5.43;100.00
69257;BME280;56376;53.356;-1.748;2023-01-27T14:10:27;101044.25;;;5.45;100.00